PROFILE

 METAR AND TAF INFORMATION
ADDS - METARS form results

(1429 UTC 22 January 2019)
http://aviationweather.gov/metar/data/
 
GMMN 221400Z 30008KT 270V340 9999 R35R///// BKN020 16/06 Q1025 NOSIG
GMMN 221330Z 28007KT 240V300 9999 SCT020 16/07 Q1025 NOSIG
TAF GMMN 221100Z 2212/2318 22008KT 9999 FEW020 BECMG 2212/2215 34013KT BECMG 2220/2224 18006KT PROB40 TEMPO 2300/2314 4000 RA BKN015 BKN066 

 AIRPORT MAP

 RUNWAY INFORMATION
Runway 17L Runway length 12205 ft Runway width 148 ft
Runway elevation 633 ft Runway displaced threshold 0 ft Runway heading 164
Runway 35R Runway length 12205 ft Runway width 148 ft
Runway elevation 656 ft Runway displaced threshold 0 ft Runway heading 344
Runway 17R Runway length 12205 ft Runway width 148 ft
Runway elevation 636 ft Runway displaced threshold 0 ft Runway heading 164
Runway 35L Runway length 12205 ft Runway width 148 ft
Runway elevation 656 ft Runway displaced threshold 0 ft Runway heading 344

 AIRPORT FREQUENCIES
Type APP Name APP Frequency 121.3 MHZ
Type ATIS Name ATIS Frequency 126.4 MHZ
Type TWR Name TWR Frequency 118.5 MHZ

 AIRPORT NEAR NAVIGATION AIDS
Type VOR-DME Name Casablanca Frequency 114000 KHZ